sensor_id;sensor_type;location;lat;lon;timestamp;P1;durP1;ratioP1;P2;durP2;ratioP2
5010;SDS011;2524;54.364;10.072;2024-03-23T00:55:12;9.47;;;3.10;;
5010;SDS011;2524;54.364;10.072;2024-03-23T00:57:39;4.63;;;2.10;;
5010;SDS011;2524;54.364;10.072;2024-03-23T01:00:05;5.37;;;2.57;;
5010;SDS011;2524;54.364;10.072;2024-03-23T01:02:31;3.70;;;1.50;;
5010;SDS011;2524;54.364;10.072;2024-03-23T01:04:57;4.47;;;2.23;;
5010;SDS011;2524;54.364;10.072;2024-03-23T01:07:23;6.57;;;3.10;;
5010;SDS011;2524;54.364;10.072;2024-03-23T01:09:49;9.20;;;2.83;;
5010;SDS011;2524;54.364;10.072;2024-03-23T01:12:17;9.07;;;2.70;;
5010;SDS011;2524;54.364;10.072;2024-03-23T01:14:43;7.20;;;2.50;;
5010;SDS011;2524;54.364;10.072;2024-03-23T01:17:09;3.43;;;1.90;;
5010;SDS011;2524;54.364;10.072;2024-03-23T01:19:35;10.57;;;2.90;;
5010;SDS011;2524;54.364;10.072;2024-03-23T01:22:01;6.87;;;2.00;;
5010;SDS011;2524;54.364;10.072;2024-03-23T01:24:27;4.87;;;2.13;;
5010;SDS011;2524;54.364;10.072;2024-03-23T01:26:53;7.13;;;2.00;;
5010;SDS011;2524;54.364;10.072;2024-03-23T01:29:19;4.37;;;1.80;;
5010;SDS011;2524;54.364;10.072;2024-03-23T01:31:45;6.67;;;2.47;;
5010;SDS011;2524;54.364;10.072;2024-03-23T01:34:11;5.90;;;1.83;;
5010;SDS011;2524;54.364;10.072;2024-03-23T01:36:37;3.33;;;1.50;;
5010;SDS011;2524;54.364;10.072;2024-03-23T01:39:03;2.30;;;1.67;;
5010;SDS011;2524;54.364;10.072;2024-03-23T01:41:29;12.20;;;2.90;;
5010;SDS011;2524;54.364;10.072;2024-03-23T01:43:57;11.67;;;3.37;;
5010;SDS011;2524;54.364;10.072;2024-03-23T01:46:23;7.73;;;2.07;;
5010;SDS011;2524;54.364;10.072;2024-03-23T01:48:48;4.50;;;1.90;;
5010;SDS011;2524;54.364;10.072;2024-03-23T01:51:15;13.40;;;3.47;;
5010;SDS011;2524;54.364;10.072;2024-03-23T01:53:41;6.73;;;2.30;;
5010;SDS011;2524;54.364;10.072;2024-03-23T01:56:07;4.07;;;2.00;;
5010;SDS011;2524;54.364;10.072;2024-03-23T01:58:33;3.90;;;1.63;;
5010;SDS011;2524;54.364;10.072;2024-03-23T02:00:59;10.93;;;3.37;;
5010;SDS011;2524;54.364;10.072;2024-03-23T02:03:26;10.80;;;2.63;;
5010;SDS011;2524;54.364;10.072;2024-03-23T02:05:52;9.20;;;2.57;;
5010;SDS011;2524;54.364;10.072;2024-03-23T02:08:20;11.53;;;2.97;;
5010;SDS011;2524;54.364;10.072;2024-03-23T02:10:46;7.67;;;2.17;;
5010;SDS011;2524;54.364;10.072;2024-03-23T02:13:14;4.87;;;2.20;;
5010;SDS011;2524;54.364;10.072;2024-03-23T02:15:40;5.07;;;2.07;;
5010;SDS011;2524;54.364;10.072;2024-03-23T02:18:09;6.83;;;2.10;;
5010;SDS011;2524;54.364;10.072;2024-03-23T02:20:35;5.40;;;2.20;;
5010;SDS011;2524;54.364;10.072;2024-03-23T02:23:01;5.83;;;2.33;;
5010;SDS011;2524;54.364;10.072;2024-03-23T02:25:27;16.33;;;2.97;;
5010;SDS011;2524;54.364;10.072;2024-03-23T02:27:53;7.40;;;2.10;;
5010;SDS011;2524;54.364;10.072;2024-03-23T02:30:20;5.63;;;2.00;;
5010;SDS011;2524;54.364;10.072;2024-03-23T02:32:46;5.30;;;2.53;;
5010;SDS011;2524;54.364;10.072;2024-03-23T02:35:12;11.53;;;2.47;;
5010;SDS011;2524;54.364;10.072;2024-03-23T02:37:38;11.70;;;2.90;;
5010;SDS011;2524;54.364;10.072;2024-03-23T02:40:04;5.37;;;2.20;;
5010;SDS011;2524;54.364;10.072;2024-03-23T02:42:30;6.17;;;2.40;;
5010;SDS011;2524;54.364;10.072;2024-03-23T02:44:58;6.90;;;1.87;;
5010;SDS011;2524;54.364;10.072;2024-03-23T02:47:24;9.57;;;2.40;;
5010;SDS011;2524;54.364;10.072;2024-03-23T02:49:50;8.20;;;2.53;;
5010;SDS011;2524;54.364;10.072;2024-03-23T02:52:16;5.87;;;2.03;;
5010;SDS011;2524;54.364;10.072;2024-03-23T02:54:42;7.00;;;1.80;;
5010;SDS011;2524;54.364;10.072;2024-03-23T02:57:10;6.00;;;2.30;;
5010;SDS011;2524;54.364;10.072;2024-03-23T02:59:36;9.80;;;2.50;;
5010;SDS011;2524;54.364;10.072;2024-03-23T03:02:02;3.70;;;1.70;;
5010;SDS011;2524;54.364;10.072;2024-03-23T03:04:29;2.90;;;1.70;;
5010;SDS011;2524;54.364;10.072;2024-03-23T03:06:55;3.27;;;1.53;;
5010;SDS011;2524;54.364;10.072;2024-03-23T03:09:22;4.47;;;1.93;;
5010;SDS011;2524;54.364;10.072;2024-03-23T03:11:48;4.57;;;1.90;;
5010;SDS011;2524;54.364;10.072;2024-03-23T03:14:14;5.70;;;1.67;;
5010;SDS011;2524;54.364;10.072;2024-03-23T03:16:40;4.40;;;1.97;;
5010;SDS011;2524;54.364;10.072;2024-03-23T03:19:06;7.50;;;2.60;;
5010;SDS011;2524;54.364;10.072;2024-03-23T03:21:32;5.20;;;1.90;;
5010;SDS011;2524;54.364;10.072;2024-03-23T03:23:58;5.27;;;1.93;;
5010;SDS011;2524;54.364;10.072;2024-03-23T03:26:24;6.40;;;1.80;;
5010;SDS011;2524;54.364;10.072;2024-03-23T03:28:50;1.63;;;1.20;;
5010;SDS011;2524;54.364;10.072;2024-03-23T03:31:16;4.67;;;2.20;;
5010;SDS011;2524;54.364;10.072;2024-03-23T03:33:43;3.40;;;1.80;;
5010;SDS011;2524;54.364;10.072;2024-03-23T03:36:09;6.80;;;2.30;;
5010;SDS011;2524;54.364;10.072;2024-03-23T03:38:35;3.53;;;1.93;;
5010;SDS011;2524;54.364;10.072;2024-03-23T03:41:01;4.00;;;1.53;;
5010;SDS011;2524;54.364;10.072;2024-03-23T03:43:27;2.97;;;1.67;;
5010;SDS011;2524;54.364;10.072;2024-03-23T03:45:54;4.47;;;1.97;;
5010;SDS011;2524;54.364;10.072;2024-03-23T03:48:20;3.33;;;1.80;;
5010;SDS011;2524;54.364;10.072;2024-03-23T03:50:46;2.97;;;1.43;;
5010;SDS011;2524;54.364;10.072;2024-03-23T03:53:12;4.40;;;1.80;;
5010;SDS011;2524;54.364;10.072;2024-03-23T03:55:38;4.00;;;2.17;;
5010;SDS011;2524;54.364;10.072;2024-03-23T03:58:04;6.40;;;1.80;;
5010;SDS011;2524;54.364;10.072;2024-03-23T04:00:30;4.00;;;1.60;;
5010;SDS011;2524;54.364;10.072;2024-03-23T04:02:56;1.97;;;1.07;;
5010;SDS011;2524;54.364;10.072;2024-03-23T04:05:22;6.93;;;1.83;;
5010;SDS011;2524;54.364;10.072;2024-03-23T04:07:48;4.53;;;1.63;;
5010;SDS011;2524;54.364;10.072;2024-03-23T04:10:14;4.67;;;2.20;;
5010;SDS011;2524;54.364;10.072;2024-03-23T04:12:43;12.20;;;2.47;;
5010;SDS011;2524;54.364;10.072;2024-03-23T04:15:10;8.73;;;3.00;;
5010;SDS011;2524;54.364;10.072;2024-03-23T04:17:36;7.30;;;2.17;;
5010;SDS011;2524;54.364;10.072;2024-03-23T04:20:02;5.37;;;1.93;;
5010;SDS011;2524;54.364;10.072;2024-03-23T04:22:33;2.77;;;1.70;;
5010;SDS011;2524;54.364;10.072;2024-03-23T04:24:59;3.50;;;1.60;;
5010;SDS011;2524;54.364;10.072;2024-03-23T04:27:32;9.80;;;2.57;;
5010;SDS011;2524;54.364;10.072;2024-03-23T04:29:59;3.73;;;1.97;;
5010;SDS011;2524;54.364;10.072;2024-03-23T04:32:26;4.77;;;2.10;;
5010;SDS011;2524;54.364;10.072;2024-03-23T04:34:52;3.90;;;1.90;;
5010;SDS011;2524;54.364;10.072;2024-03-23T04:37:18;6.97;;;2.20;;
5010;SDS011;2524;54.364;10.072;2024-03-23T04:39:44;2.73;;;1.90;;
5010;SDS011;2524;54.364;10.072;2024-03-23T04:42:10;5.37;;;2.10;;
5010;SDS011;2524;54.364;10.072;2024-03-23T04:44:37;4.67;;;1.70;;
5010;SDS011;2524;54.364;10.072;2024-03-23T04:47:03;5.93;;;1.80;;
5010;SDS011;2524;54.364;10.072;2024-03-23T04:49:30;9.97;;;2.80;;
5010;SDS011;2524;54.364;10.072;2024-03-23T04:51:56;4.87;;;2.37;;
5010;SDS011;2524;54.364;10.072;2024-03-23T04:54:24;8.10;;;2.53;;
5010;SDS011;2524;54.364;10.072;2024-03-23T04:56:50;12.80;;;2.20;;
5010;SDS011;2524;54.364;10.072;2024-03-23T04:59:16;6.87;;;2.07;;
5010;SDS011;2524;54.364;10.072;2024-03-23T05:01:42;7.23;;;2.10;;
5010;SDS011;2524;54.364;10.072;2024-03-23T05:04:09;3.47;;;1.80;;
5010;SDS011;2524;54.364;10.072;2024-03-23T05:06:35;4.47;;;1.93;;
5010;SDS011;2524;54.364;10.072;2024-03-23T05:09:01;6.07;;;1.97;;
5010;SDS011;2524;54.364;10.072;2024-03-23T05:11:36;5.13;;;2.10;;
5010;SDS011;2524;54.364;10.072;2024-03-23T05:14:02;7.40;;;2.20;;
5010;SDS011;2524;54.364;10.072;2024-03-23T05:16:28;3.20;;;1.83;;
5010;SDS011;2524;54.364;10.072;2024-03-23T05:18:54;3.80;;;1.90;;
5010;SDS011;2524;54.364;10.072;2024-03-23T05:21:20;3.93;;;1.70;;
5010;SDS011;2524;54.364;10.072;2024-03-23T05:23:46;3.83;;;1.50;;
5010;SDS011;2524;54.364;10.072;2024-03-23T05:26:13;3.47;;;1.90;;
5010;SDS011;2524;54.364;10.072;2024-03-23T05:28:39;5.73;;;2.40;;
5010;SDS011;2524;54.364;10.072;2024-03-23T05:31:05;6.07;;;2.37;;
5010;SDS011;2524;54.364;10.072;2024-03-23T05:33:31;3.00;;;2.60;;
5010;SDS011;2524;54.364;10.072;2024-03-23T05:35:57;5.70;;;2.50;;
5010;SDS011;2524;54.364;10.072;2024-03-23T05:38:23;5.77;;;2.70;;
5010;SDS011;2524;54.364;10.072;2024-03-23T05:40:59;3.73;;;2.20;;
5010;SDS011;2524;54.364;10.072;2024-03-23T05:43:25;7.53;;;4.20;;
5010;SDS011;2524;54.364;10.072;2024-03-23T05:45:55;6.17;;;3.00;;
5010;SDS011;2524;54.364;10.072;2024-03-23T05:48:21;13.70;;;4.63;;
5010;SDS011;2524;54.364;10.072;2024-03-23T05:50:48;8.90;;;3.40;;
5010;SDS011;2524;54.364;10.072;2024-03-23T05:53:17;4.83;;;2.87;;
5010;SDS011;2524;54.364;10.072;2024-03-23T05:55:44;9.43;;;3.57;;
5010;SDS011;2524;54.364;10.072;2024-03-23T05:58:12;8.40;;;4.17;;
5010;SDS011;2524;54.364;10.072;2024-03-23T06:00:38;15.00;;;4.60;;
5010;SDS011;2524;54.364;10.072;2024-03-23T06:03:04;9.80;;;4.33;;
5010;SDS011;2524;54.364;10.072;2024-03-23T06:05:30;8.80;;;4.40;;
5010;SDS011;2524;54.364;10.072;2024-03-23T06:07:56;13.27;;;5.57;;
5010;SDS011;2524;54.364;10.072;2024-03-23T06:10:22;10.93;;;4.63;;
5010;SDS011;2524;54.364;10.072;2024-03-23T06:12:48;9.37;;;4.07;;
5010;SDS011;2524;54.364;10.072;2024-03-23T06:15:17;8.00;;;3.77;;
5010;SDS011;2524;54.364;10.072;2024-03-23T06:17:43;16.57;;;5.37;;
5010;SDS011;2524;54.364;10.072;2024-03-23T06:20:09;8.47;;;4.77;;
5010;SDS011;2524;54.364;10.072;2024-03-23T06:22:35;14.10;;;5.43;;
5010;SDS011;2524;54.364;10.072;2024-03-23T06:25:01;9.77;;;4.60;;
5010;SDS011;2524;54.364;10.072;2024-03-23T06:27:27;6.60;;;3.50;;
5010;SDS011;2524;54.364;10.072;2024-03-23T06:29:54;6.23;;;3.47;;
5010;SDS011;2524;54.364;10.072;2024-03-23T06:32:20;6.20;;;3.03;;
5010;SDS011;2524;54.364;10.072;2024-03-23T06:34:46;7.53;;;3.53;;
5010;SDS011;2524;54.364;10.072;2024-03-23T06:37:12;16.90;;;5.43;;
5010;SDS011;2524;54.364;10.072;2024-03-23T06:39:38;11.80;;;4.20;;
5010;SDS011;2524;54.364;10.072;2024-03-23T06:42:04;9.13;;;3.23;;
5010;SDS011;2524;54.364;10.072;2024-03-23T06:44:31;7.23;;;3.53;;
5010;SDS011;2524;54.364;10.072;2024-03-23T06:46:57;5.03;;;2.90;;
5010;SDS011;2524;54.364;10.072;2024-03-23T06:49:23;4.33;;;2.50;;
5010;SDS011;2524;54.364;10.072;2024-03-23T06:51:49;6.17;;;3.70;;
5010;SDS011;2524;54.364;10.072;2024-03-23T06:54:19;14.17;;;5.07;;
5010;SDS011;2524;54.364;10.072;2024-03-23T06:56:45;10.67;;;4.57;;
5010;SDS011;2524;54.364;10.072;2024-03-23T06:59:11;11.17;;;3.73;;
5010;SDS011;2524;54.364;10.072;2024-03-23T07:01:37;9.17;;;4.03;;
5010;SDS011;2524;54.364;10.072;2024-03-23T07:04:03;5.70;;;3.10;;
5010;SDS011;2524;54.364;10.072;2024-03-23T07:06:30;14.23;;;5.40;;
5010;SDS011;2524;54.364;10.072;2024-03-23T07:08:56;7.20;;;4.50;;
5010;SDS011;2524;54.364;10.072;2024-03-23T07:11:22;10.27;;;4.10;;
5010;SDS011;2524;54.364;10.072;2024-03-23T07:13:52;11.00;;;4.50;;
5010;SDS011;2524;54.364;10.072;2024-03-23T07:16:21;5.80;;;3.97;;
5010;SDS011;2524;54.364;10.072;2024-03-23T07:18:49;8.53;;;4.20;;
5010;SDS011;2524;54.364;10.072;2024-03-23T07:21:15;5.73;;;3.60;;
5010;SDS011;2524;54.364;10.072;2024-03-23T07:23:42;10.70;;;4.73;;
5010;SDS011;2524;54.364;10.072;2024-03-23T07:26:11;11.67;;;4.90;;
5010;SDS011;2524;54.364;10.072;2024-03-23T07:28:37;14.17;;;5.33;;
5010;SDS011;2524;54.364;10.072;2024-03-23T07:31:08;7.30;;;4.60;;
5010;SDS011;2524;54.364;10.072;2024-03-23T07:33:35;14.47;;;5.57;;
5010;SDS011;2524;54.364;10.072;2024-03-23T07:36:02;21.03;;;7.10;;
5010;SDS011;2524;54.364;10.072;2024-03-23T07:38:28;8.00;;;4.80;;
5010;SDS011;2524;54.364;10.072;2024-03-23T07:43:30;10.47;;;6.10;;
5010;SDS011;2524;54.364;10.072;2024-03-23T07:45:56;28.53;;;7.60;;
5010;SDS011;2524;54.364;10.072;2024-03-23T07:48:22;13.53;;;5.40;;
5010;SDS011;2524;54.364;10.072;2024-03-23T07:50:58;20.87;;;7.33;;
5010;SDS011;2524;54.364;10.072;2024-03-23T07:53:24;9.00;;;5.70;;
5010;SDS011;2524;54.364;10.072;2024-03-23T07:55:57;9.20;;;4.73;;
5010;SDS011;2524;54.364;10.072;2024-03-23T07:58:23;25.87;;;7.90;;
5010;SDS011;2524;54.364;10.072;2024-03-23T08:00:49;24.17;;;7.43;;
5010;SDS011;2524;54.364;10.072;2024-03-23T08:03:15;12.27;;;5.70;;
5010;SDS011;2524;54.364;10.072;2024-03-23T08:05:41;11.53;;;5.37;;
5010;SDS011;2524;54.364;10.072;2024-03-23T08:08:07;13.00;;;5.97;;
5010;SDS011;2524;54.364;10.072;2024-03-23T08:10:33;17.37;;;6.50;;
5010;SDS011;2524;54.364;10.072;2024-03-23T08:12:59;16.70;;;6.60;;
5010;SDS011;2524;54.364;10.072;2024-03-23T08:15:25;11.00;;;5.43;;
5010;SDS011;2524;54.364;10.072;2024-03-23T08:17:51;15.43;;;5.57;;
5010;SDS011;2524;54.364;10.072;2024-03-23T08:20:17;9.03;;;4.30;;
5010;SDS011;2524;54.364;10.072;2024-03-23T08:22:43;16.40;;;5.70;;
5010;SDS011;2524;54.364;10.072;2024-03-23T08:25:09;14.80;;;5.63;;
5010;SDS011;2524;54.364;10.072;2024-03-23T08:27:35;13.67;;;5.43;;
5010;SDS011;2524;54.364;10.072;2024-03-23T08:30:01;16.97;;;6.07;;
5010;SDS011;2524;54.364;10.072;2024-03-23T08:32:27;15.30;;;5.70;;
5010;SDS011;2524;54.364;10.072;2024-03-23T08:34:53;14.57;;;4.77;;
5010;SDS011;2524;54.364;10.072;2024-03-23T08:37:20;17.47;;;6.30;;
5010;SDS011;2524;54.364;10.072;2024-03-23T08:39:46;1.40;;;1.30;;
5010;SDS011;2524;54.364;10.072;2024-03-23T08:42:12;1.33;;;0.90;;
5010;SDS011;2524;54.364;10.072;2024-03-23T08:44:38;0.80;;;0.80;;
5010;SDS011;2524;54.364;10.072;2024-03-23T08:47:04;2.00;;;0.70;;
5010;SDS011;2524;54.364;10.072;2024-03-23T08:49:30;0.80;;;0.80;;
5010;SDS011;2524;54.364;10.072;2024-03-23T08:51:56;0.70;;;0.70;;
5010;SDS011;2524;54.364;10.072;2024-03-23T08:54:22;1.43;;;0.70;;
5010;SDS011;2524;54.364;10.072;2024-03-23T08:56:48;0.93;;;0.77;;
5010;SDS011;2524;54.364;10.072;2024-03-23T08:59:14;0.80;;;0.80;;
5010;SDS011;2524;54.364;10.072;2024-03-23T09:01:40;2.80;;;1.27;;
5010;SDS011;2524;54.364;10.072;2024-03-23T09:04:06;2.57;;;1.30;;
5010;SDS011;2524;54.364;10.072;2024-03-23T09:06:32;1.30;;;1.20;;
5010;SDS011;2524;54.364;10.072;2024-03-23T09:08:58;2.30;;;1.07;;
5010;SDS011;2524;54.364;10.072;2024-03-23T09:11:24;3.27;;;1.53;;
5010;SDS011;2524;54.364;10.072;2024-03-23T09:13:50;0.97;;;0.97;;
5010;SDS011;2524;54.364;10.072;2024-03-23T09:16:16;3.03;;;1.50;;
5010;SDS011;2524;54.364;10.072;2024-03-23T09:18:42;2.67;;;1.20;;
5010;SDS011;2524;54.364;10.072;2024-03-23T09:21:11;3.53;;;1.27;;
5010;SDS011;2524;54.364;10.072;2024-03-23T09:23:38;3.80;;;1.40;;
5010;SDS011;2524;54.364;10.072;2024-03-23T09:26:04;2.40;;;1.00;;
5010;SDS011;2524;54.364;10.072;2024-03-23T09:28:32;1.13;;;0.90;;
5010;SDS011;2524;54.364;10.072;2024-03-23T09:31:05;7.53;;;2.53;;
5010;SDS011;2524;54.364;10.072;2024-03-23T09:33:32;4.10;;;1.67;;
5010;SDS011;2524;54.364;10.072;2024-03-23T09:35:58;2.00;;;1.30;;
5010;SDS011;2524;54.364;10.072;2024-03-23T09:38:28;2.50;;;1.20;;
5010;SDS011;2524;54.364;10.072;2024-03-23T09:40:55;4.90;;;1.20;;
5010;SDS011;2524;54.364;10.072;2024-03-23T09:43:21;4.30;;;1.50;;
5010;SDS011;2524;54.364;10.072;2024-03-23T09:45:48;2.93;;;1.57;;
5010;SDS011;2524;54.364;10.072;2024-03-23T09:48:14;3.40;;;1.67;;
5010;SDS011;2524;54.364;10.072;2024-03-23T09:50:41;2.93;;;1.30;;
5010;SDS011;2524;54.364;10.072;2024-03-23T09:53:08;2.20;;;1.40;;
5010;SDS011;2524;54.364;10.072;2024-03-23T09:55:34;2.17;;;1.93;;
5010;SDS011;2524;54.364;10.072;2024-03-23T09:58:01;4.37;;;2.60;;
5010;SDS011;2524;54.364;10.072;2024-03-23T10:00:27;1.77;;;1.67;;
5010;SDS011;2524;54.364;10.072;2024-03-23T10:02:56;1.83;;;1.73;;
5010;SDS011;2524;54.364;10.072;2024-03-23T10:05:27;1.80;;;1.70;;
5010;SDS011;2524;54.364;10.072;2024-03-23T10:07:53;4.07;;;2.20;;
5010;SDS011;2524;54.364;10.072;2024-03-23T10:10:19;5.80;;;2.63;;
5010;SDS011;2524;54.364;10.072;2024-03-23T10:12:46;1.63;;;1.50;;
5010;SDS011;2524;54.364;10.072;2024-03-23T10:15:19;1.80;;;1.57;;
5010;SDS011;2524;54.364;10.072;2024-03-23T10:17:45;2.03;;;1.67;;
5010;SDS011;2524;54.364;10.072;2024-03-23T10:20:11;5.70;;;1.93;;
5010;SDS011;2524;54.364;10.072;2024-03-23T10:22:38;2.03;;;1.60;;
5010;SDS011;2524;54.364;10.072;2024-03-23T10:25:07;12.47;;;2.73;;
5010;SDS011;2524;54.364;10.072;2024-03-23T10:27:34;6.73;;;2.53;;
5010;SDS011;2524;54.364;10.072;2024-03-23T10:30:07;4.27;;;2.40;;
5010;SDS011;2524;54.364;10.072;2024-03-23T10:32:34;3.70;;;2.17;;
5010;SDS011;2524;54.364;10.072;2024-03-23T10:35:42;9.73;;;3.13;;
5010;SDS011;2524;54.364;10.072;2024-03-23T10:37:49;2.20;;;1.93;;
5010;SDS011;2524;54.364;10.072;2024-03-23T10:40:17;1.90;;;1.80;;
5010;SDS011;2524;54.364;10.072;2024-03-23T10:42:46;4.40;;;2.27;;
5010;SDS011;2524;54.364;10.072;2024-03-23T10:45:13;5.50;;;2.43;;
5010;SDS011;2524;54.364;10.072;2024-03-23T10:47:39;2.27;;;1.30;;
5010;SDS011;2524;54.364;10.072;2024-03-23T10:50:05;1.63;;;1.50;;
5010;SDS011;2524;54.364;10.072;2024-03-23T10:52:34;2.70;;;1.53;;
5010;SDS011;2524;54.364;10.072;2024-03-23T10:55:00;1.37;;;1.23;;
5010;SDS011;2524;54.364;10.072;2024-03-23T10:57:40;2.87;;;1.70;;
5010;SDS011;2524;54.364;10.072;2024-03-23T11:00:07;5.07;;;2.03;;
5010;SDS011;2524;54.364;10.072;2024-03-23T11:02:33;7.43;;;1.90;;
5010;SDS011;2524;54.364;10.072;2024-03-23T11:04:59;3.17;;;1.33;;
5010;SDS011;2524;54.364;10.072;2024-03-23T11:09:52;4.67;;;1.67;;
5010;SDS011;2524;54.364;10.072;2024-03-23T11:14:50;4.17;;;1.60;;
5010;SDS011;2524;54.364;10.072;2024-03-23T11:17:26;5.30;;;2.20;;
5010;SDS011;2524;54.364;10.072;2024-03-23T11:19:59;3.63;;;1.60;;
5010;SDS011;2524;54.364;10.072;2024-03-23T11:25:13;2.83;;;1.30;;
5010;SDS011;2524;54.364;10.072;2024-03-23T11:27:39;2.70;;;1.20;;
5010;SDS011;2524;54.364;10.072;2024-03-23T11:30:12;3.23;;;1.80;;
5010;SDS011;2524;54.364;10.072;2024-03-23T11:32:38;3.17;;;1.00;;
5010;SDS011;2524;54.364;10.072;2024-03-23T11:35:05;2.93;;;1.40;;
5010;SDS011;2524;54.364;10.072;2024-03-23T11:37:31;1.37;;;1.10;;
5010;SDS011;2524;54.364;10.072;2024-03-23T11:39:57;2.67;;;1.20;;
5010;SDS011;2524;54.364;10.072;2024-03-23T11:42:23;2.73;;;1.67;;
5010;SDS011;2524;54.364;10.072;2024-03-23T11:44:49;2.00;;;1.17;;
5010;SDS011;2524;54.364;10.072;2024-03-23T11:47:15;4.20;;;1.17;;
5010;SDS011;2524;54.364;10.072;2024-03-23T11:49:41;3.40;;;1.40;;
5010;SDS011;2524;54.364;10.072;2024-03-23T11:52:07;2.63;;;1.13;;
5010;SDS011;2524;54.364;10.072;2024-03-23T11:54:33;1.07;;;0.87;;
5010;SDS011;2524;54.364;10.072;2024-03-23T11:57:02;0.80;;;0.77;;
5010;SDS011;2524;54.364;10.072;2024-03-23T11:59:35;2.27;;;1.00;;
5010;SDS011;2524;54.364;10.072;2024-03-23T12:02:09;1.63;;;1.53;;
5010;SDS011;2524;54.364;10.072;2024-03-23T12:04:36;2.03;;;1.17;;
5010;SDS011;2524;54.364;10.072;2024-03-23T12:07:14;1.20;;;1.10;;
5010;SDS011;2524;54.364;10.072;2024-03-23T12:09:42;1.97;;;1.40;;
5010;SDS011;2524;54.364;10.072;2024-03-23T12:12:13;9.60;;;2.30;;
5010;SDS011;2524;54.364;10.072;2024-03-23T12:14:45;4.27;;;1.90;;
5010;SDS011;2524;54.364;10.072;2024-03-23T12:17:26;1.37;;;1.23;;
5010;SDS011;2524;54.364;10.072;2024-03-23T12:19:52;4.40;;;1.33;;
5010;SDS011;2524;54.364;10.072;2024-03-23T12:22:21;1.80;;;1.20;;
5010;SDS011;2524;54.364;10.072;2024-03-23T12:24:48;9.83;;;2.50;;
5010;SDS011;2524;54.364;10.072;2024-03-23T12:27:14;9.90;;;2.00;;
5010;SDS011;2524;54.364;10.072;2024-03-23T12:29:40;5.63;;;2.03;;
5010;SDS011;2524;54.364;10.072;2024-03-23T12:32:08;2.60;;;1.60;;
5010;SDS011;2524;54.364;10.072;2024-03-23T12:34:34;6.17;;;2.03;;
5010;SDS011;2524;54.364;10.072;2024-03-23T12:37:00;1.57;;;1.10;;
5010;SDS011;2524;54.364;10.072;2024-03-23T12:39:26;3.07;;;1.27;;
5010;SDS011;2524;54.364;10.072;2024-03-23T12:41:52;3.67;;;1.40;;
5010;SDS011;2524;54.364;10.072;2024-03-23T12:44:18;3.17;;;1.33;;
5010;SDS011;2524;54.364;10.072;2024-03-23T12:46:44;3.17;;;1.53;;
5010;SDS011;2524;54.364;10.072;2024-03-23T12:49:11;3.40;;;1.37;;
5010;SDS011;2524;54.364;10.072;2024-03-23T12:51:37;1.40;;;1.23;;
5010;SDS011;2524;54.364;10.072;2024-03-23T12:54:03;4.90;;;1.73;;
5010;SDS011;2524;54.364;10.072;2024-03-23T12:56:29;4.13;;;1.43;;
5010;SDS011;2524;54.364;10.072;2024-03-23T12:58:55;1.77;;;1.27;;
5010;SDS011;2524;54.364;10.072;2024-03-23T13:01:22;6.57;;;1.87;;
5010;SDS011;2524;54.364;10.072;2024-03-23T13:03:49;4.50;;;1.57;;
5010;SDS011;2524;54.364;10.072;2024-03-23T13:06:15;3.73;;;1.80;;
5010;SDS011;2524;54.364;10.072;2024-03-23T13:08:46;4.23;;;1.60;;
5010;SDS011;2524;54.364;10.072;2024-03-23T13:11:14;3.60;;;1.57;;
5010;SDS011;2524;54.364;10.072;2024-03-23T13:13:40;4.37;;;1.33;;
5010;SDS011;2524;54.364;10.072;2024-03-23T13:16:09;6.23;;;2.03;;
5010;SDS011;2524;54.364;10.072;2024-03-23T13:18:35;3.70;;;2.00;;
5010;SDS011;2524;54.364;10.072;2024-03-23T13:21:01;7.87;;;1.50;;
5010;SDS011;2524;54.364;10.072;2024-03-23T13:23:27;7.43;;;2.20;;
5010;SDS011;2524;54.364;10.072;2024-03-23T13:25:54;7.30;;;1.70;;
5010;SDS011;2524;54.364;10.072;2024-03-23T13:28:20;9.17;;;2.37;;
5010;SDS011;2524;54.364;10.072;2024-03-23T13:30:50;6.63;;;2.17;;
5010;SDS011;2524;54.364;10.072;2024-03-23T13:33:16;3.10;;;1.23;;
5010;SDS011;2524;54.364;10.072;2024-03-23T13:35:52;2.30;;;1.00;;
5010;SDS011;2524;54.364;10.072;2024-03-23T13:38:18;2.30;;;1.13;;
5010;SDS011;2524;54.364;10.072;2024-03-23T13:40:54;2.07;;;1.10;;
5010;SDS011;2524;54.364;10.072;2024-03-23T13:43:21;3.90;;;1.40;;
5010;SDS011;2524;54.364;10.072;2024-03-23T13:45:47;2.47;;;1.30;;
5010;SDS011;2524;54.364;10.072;2024-03-23T13:48:15;2.57;;;1.20;;
5010;SDS011;2524;54.364;10.072;2024-03-23T13:50:41;3.90;;;1.43;;
5010;SDS011;2524;54.364;10.072;2024-03-23T13:53:07;1.33;;;0.90;;
5010;SDS011;2524;54.364;10.072;2024-03-23T13:55:33;1.73;;;1.03;;
5010;SDS011;2524;54.364;10.072;2024-03-23T13:58:00;1.00;;;0.90;;
5010;SDS011;2524;54.364;10.072;2024-03-23T14:00:26;2.30;;;1.40;;
5010;SDS011;2524;54.364;10.072;2024-03-23T14:02:52;1.80;;;1.30;;
5010;SDS011;2524;54.364;10.072;2024-03-23T14:05:17;1.47;;;1.17;;
5010;SDS011;2524;54.364;10.072;2024-03-23T14:07:43;1.70;;;1.20;;
5010;SDS011;2524;54.364;10.072;2024-03-23T14:10:09;1.10;;;1.00;;
5010;SDS011;2524;54.364;10.072;2024-03-23T14:12:36;2.43;;;1.00;;
5010;SDS011;2524;54.364;10.072;2024-03-23T14:15:05;8.80;;;1.57;;
5010;SDS011;2524;54.364;10.072;2024-03-23T14:17:31;3.40;;;1.93;;
5010;SDS011;2524;54.364;10.072;2024-03-23T14:19:57;4.80;;;1.60;;
5010;SDS011;2524;54.364;10.072;2024-03-23T14:22:26;3.97;;;1.90;;
5010;SDS011;2524;54.364;10.072;2024-03-23T14:24:52;6.47;;;2.23;;
5010;SDS011;2524;54.364;10.072;2024-03-23T14:27:18;4.67;;;2.20;;
5010;SDS011;2524;54.364;10.072;2024-03-23T14:29:45;7.10;;;2.00;;
5010;SDS011;2524;54.364;10.072;2024-03-23T14:32:12;5.77;;;1.77;;
5010;SDS011;2524;54.364;10.072;2024-03-23T14:34:37;9.00;;;3.07;;
5010;SDS011;2524;54.364;10.072;2024-03-23T14:37:03;4.37;;;2.10;;
5010;SDS011;2524;54.364;10.072;2024-03-23T14:39:30;3.50;;;2.10;;
5010;SDS011;2524;54.364;10.072;2024-03-23T14:41:56;6.00;;;1.93;;
5010;SDS011;2524;54.364;10.072;2024-03-23T14:44:22;3.63;;;1.37;;
5010;SDS011;2524;54.364;10.072;2024-03-23T14:46:48;4.10;;;1.57;;
5010;SDS011;2524;54.364;10.072;2024-03-23T14:49:14;7.10;;;2.20;;
5010;SDS011;2524;54.364;10.072;2024-03-23T14:51:43;5.70;;;1.90;;
5010;SDS011;2524;54.364;10.072;2024-03-23T14:54:09;10.60;;;2.63;;
5010;SDS011;2524;54.364;10.072;2024-03-23T14:56:35;9.33;;;2.23;;
5010;SDS011;2524;54.364;10.072;2024-03-23T14:59:01;6.60;;;2.20;;
5010;SDS011;2524;54.364;10.072;2024-03-23T15:01:26;4.60;;;1.97;;
5010;SDS011;2524;54.364;10.072;2024-03-23T15:03:52;5.87;;;2.10;;
5010;SDS011;2524;54.364;10.072;2024-03-23T15:06:18;7.57;;;2.50;;
5010;SDS011;2524;54.364;10.072;2024-03-23T15:08:44;4.90;;;2.60;;
5010;SDS011;2524;54.364;10.072;2024-03-23T15:11:10;3.97;;;1.80;;
5010;SDS011;2524;54.364;10.072;2024-03-23T15:13:36;2.77;;;1.53;;
5010;SDS011;2524;54.364;10.072;2024-03-23T15:16:02;6.70;;;2.30;;
5010;SDS011;2524;54.364;10.072;2024-03-23T15:18:31;5.57;;;2.13;;
5010;SDS011;2524;54.364;10.072;2024-03-23T15:20:58;3.83;;;1.50;;
5010;SDS011;2524;54.364;10.072;2024-03-23T15:23:31;2.47;;;1.57;;
5010;SDS011;2524;54.364;10.072;2024-03-23T15:25:57;2.67;;;1.40;;
5010;SDS011;2524;54.364;10.072;2024-03-23T15:28:23;2.00;;;1.40;;
5010;SDS011;2524;54.364;10.072;2024-03-23T15:30:49;2.63;;;1.50;;
5010;SDS011;2524;54.364;10.072;2024-03-23T15:33:15;6.20;;;1.87;;
5010;SDS011;2524;54.364;10.072;2024-03-23T15:35:41;2.73;;;1.47;;
5010;SDS011;2524;54.364;10.072;2024-03-23T15:38:06;10.50;;;2.47;;
5010;SDS011;2524;54.364;10.072;2024-03-23T15:40:32;5.20;;;2.07;;
5010;SDS011;2524;54.364;10.072;2024-03-23T15:42:57;2.67;;;1.70;;
5010;SDS011;2524;54.364;10.072;2024-03-23T15:45:23;4.07;;;1.40;;
5010;SDS011;2524;54.364;10.072;2024-03-23T15:47:48;5.67;;;2.10;;
5010;SDS011;2524;54.364;10.072;2024-03-23T15:50:14;7.00;;;1.70;;
5010;SDS011;2524;54.364;10.072;2024-03-23T15:52:40;6.80;;;1.93;;
5010;SDS011;2524;54.364;10.072;2024-03-23T15:55:05;3.33;;;1.60;;
5010;SDS011;2524;54.364;10.072;2024-03-23T15:57:34;7.40;;;2.10;;
5010;SDS011;2524;54.364;10.072;2024-03-23T16:00:01;7.37;;;1.77;;
5010;SDS011;2524;54.364;10.072;2024-03-23T16:02:27;2.30;;;1.50;;